sensor_id;sensor_type;location;lat;lon;timestamp;temperature;humidity
36818;DHT22;22761;51.542;16.450;2022-10-31T00:01:21;12.51;73.33
36818;DHT22;22761;51.542;16.450;2022-10-31T00:03:49;12.49;73.54
36818;DHT22;22761;51.542;16.450;2022-10-31T00:06:17;12.49;73.68
36818;DHT22;22761;51.542;16.450;2022-10-31T00:08:56;12.51;73.69
36818;DHT22;22761;51.542;16.450;2022-10-31T00:11:24;12.48;73.50
36818;DHT22;22761;51.542;16.450;2022-10-31T00:13:52;12.48;72.88
36818;DHT22;22761;51.542;16.450;2022-10-31T00:16:24;12.47;72.87
36818;DHT22;22761;51.542;16.450;2022-10-31T00:18:56;12.49;72.91
36818;DHT22;22761;51.542;16.450;2022-10-31T00:21:25;12.45;72.69
36818;DHT22;22761;51.542;16.450;2022-10-31T00:23:53;12.42;72.41
36818;DHT22;22761;51.542;16.450;2022-10-31T00:26:20;12.42;72.52
36818;DHT22;22761;51.542;16.450;2022-10-31T00:28:48;12.38;72.66
36818;DHT22;22761;51.542;16.450;2022-10-31T00:31:17;12.38;72.71
36818;DHT22;22761;51.542;16.450;2022-10-31T00:33:44;12.35;72.59
36818;DHT22;22761;51.542;16.450;2022-10-31T00:36:18;12.33;72.67
36818;DHT22;22761;51.542;16.450;2022-10-31T00:38:47;12.30;72.64
36818;DHT22;22761;51.542;16.450;2022-10-31T00:41:17;12.27;72.70
36818;DHT22;22761;51.542;16.450;2022-10-31T00:43:44;12.23;72.57
36818;DHT22;22761;51.542;16.450;2022-10-31T00:46:13;12.21;72.93
36818;DHT22;22761;51.542;16.450;2022-10-31T00:48:41;12.19;72.81
36818;DHT22;22761;51.542;16.450;2022-10-31T00:51:09;12.16;72.97
36818;DHT22;22761;51.542;16.450;2022-10-31T00:53:37;12.17;72.99
36818;DHT22;22761;51.542;16.450;2022-10-31T00:56:05;12.16;73.10
36818;DHT22;22761;51.542;16.450;2022-10-31T00:58:33;12.12;73.04
36818;DHT22;22761;51.542;16.450;2022-10-31T01:01:00;12.10;73.05
36818;DHT22;22761;51.542;16.450;2022-10-31T01:03:31;12.10;72.95
36818;DHT22;22761;51.542;16.450;2022-10-31T01:06:11;12.07;72.95
36818;DHT22;22761;51.542;16.450;2022-10-31T01:08:39;12.03;73.00
36818;DHT22;22761;51.542;16.450;2022-10-31T01:11:12;12.03;73.19
36818;DHT22;22761;51.542;16.450;2022-10-31T01:13:41;12.01;73.22
36818;DHT22;22761;51.542;16.450;2022-10-31T01:16:17;11.97;73.32
36818;DHT22;22761;51.542;16.450;2022-10-31T01:18:41;11.96;73.23
36818;DHT22;22761;51.542;16.450;2022-10-31T01:21:12;11.92;73.59
36818;DHT22;22761;51.542;16.450;2022-10-31T01:23:40;11.92;73.62
36818;DHT22;22761;51.542;16.450;2022-10-31T01:26:13;11.92;73.43
36818;DHT22;22761;51.542;16.450;2022-10-31T01:28:49;11.90;73.15
36818;DHT22;22761;51.542;16.450;2022-10-31T01:31:19;11.90;73.75
36818;DHT22;22761;51.542;16.450;2022-10-31T01:33:47;11.92;73.35
36818;DHT22;22761;51.542;16.450;2022-10-31T01:36:19;11.92;74.02
36818;DHT22;22761;51.542;16.450;2022-10-31T01:38:51;11.92;73.72
36818;DHT22;22761;51.542;16.450;2022-10-31T01:41:24;11.93;73.73
36818;DHT22;22761;51.542;16.450;2022-10-31T01:46:45;11.88;73.53
36818;DHT22;22761;51.542;16.450;2022-10-31T01:49:28;11.89;73.94
36818;DHT22;22761;51.542;16.450;2022-10-31T01:52:01;11.89;73.59
36818;DHT22;22761;51.542;16.450;2022-10-31T01:54:33;11.90;73.24
36818;DHT22;22761;51.542;16.450;2022-10-31T01:57:03;11.85;73.08
36818;DHT22;22761;51.542;16.450;2022-10-31T01:59:34;11.80;73.48
36818;DHT22;22761;51.542;16.450;2022-10-31T02:02:03;11.78;73.54
36818;DHT22;22761;51.542;16.450;2022-10-31T02:04:30;11.76;73.57
36818;DHT22;22761;51.542;16.450;2022-10-31T02:07:14;11.75;73.89
36818;DHT22;22761;51.542;16.450;2022-10-31T02:09:43;11.72;73.68
36818;DHT22;22761;51.542;16.450;2022-10-31T02:12:13;11.73;74.22
36818;DHT22;22761;51.542;16.450;2022-10-31T02:14:40;11.72;74.22
36818;DHT22;22761;51.542;16.450;2022-10-31T02:17:08;11.71;74.91
36818;DHT22;22761;51.542;16.450;2022-10-31T02:20:10;11.71;74.67
36818;DHT22;22761;51.542;16.450;2022-10-31T02:23:06;11.69;74.44
36818;DHT22;22761;51.542;16.450;2022-10-31T02:26:06;11.69;73.80
36818;DHT22;22761;51.542;16.450;2022-10-31T02:39:56;11.62;73.41
36818;DHT22;22761;51.542;16.450;2022-10-31T02:42:49;11.64;73.21
36818;DHT22;22761;51.542;16.450;2022-10-31T02:48:13;11.57;73.11
36818;DHT22;22761;51.542;16.450;2022-10-31T02:50:49;11.51;73.18
36818;DHT22;22761;51.542;16.450;2022-10-31T02:53:16;11.50;73.28
36818;DHT22;22761;51.542;16.450;2022-10-31T02:55:48;11.47;73.21
36818;DHT22;22761;51.542;16.450;2022-10-31T02:58:20;11.43;73.13
36818;DHT22;22761;51.542;16.450;2022-10-31T03:04:12;11.37;74.00
36818;DHT22;22761;51.542;16.450;2022-10-31T03:06:56;11.35;73.83
36818;DHT22;22761;51.542;16.450;2022-10-31T03:12:31;11.33;73.64
36818;DHT22;22761;51.542;16.450;2022-10-31T03:20:24;11.28;74.42
36818;DHT22;22761;51.542;16.450;2022-10-31T03:22:53;11.28;74.06
36818;DHT22;22761;51.542;16.450;2022-10-31T03:25:22;11.27;73.83
36818;DHT22;22761;51.542;16.450;2022-10-31T03:27:52;11.26;73.79
36818;DHT22;22761;51.542;16.450;2022-10-31T03:30:20;11.24;73.75
36818;DHT22;22761;51.542;16.450;2022-10-31T03:32:52;11.21;74.46
36818;DHT22;22761;51.542;16.450;2022-10-31T03:35:24;11.21;73.86
36818;DHT22;22761;51.542;16.450;2022-10-31T03:37:54;11.20;73.80
36818;DHT22;22761;51.542;16.450;2022-10-31T03:40:24;11.21;73.71
36818;DHT22;22761;51.542;16.450;2022-10-31T03:43:07;11.18;74.28
36818;DHT22;22761;51.542;16.450;2022-10-31T03:45:40;11.18;73.75
36818;DHT22;22761;51.542;16.450;2022-10-31T03:48:08;11.20;74.22
36818;DHT22;22761;51.542;16.450;2022-10-31T03:53:43;11.16;74.81
36818;DHT22;22761;51.542;16.450;2022-10-31T03:56:34;11.17;74.74
36818;DHT22;22761;51.542;16.450;2022-10-31T03:59:13;11.16;74.00
36818;DHT22;22761;51.542;16.450;2022-10-31T04:01:51;11.17;73.65
36818;DHT22;22761;51.542;16.450;2022-10-31T04:04:13;11.14;73.72
36818;DHT22;22761;51.542;16.450;2022-10-31T04:06:44;11.13;73.74
36818;DHT22;22761;51.542;16.450;2022-10-31T04:09:15;11.11;73.64
36818;DHT22;22761;51.542;16.450;2022-10-31T04:11:50;11.10;73.50
36818;DHT22;22761;51.542;16.450;2022-10-31T04:14:38;11.07;73.35
36818;DHT22;22761;51.542;16.450;2022-10-31T04:17:12;11.06;73.12
36818;DHT22;22761;51.542;16.450;2022-10-31T04:19:40;11.00;73.16
36818;DHT22;22761;51.542;16.450;2022-10-31T04:22:08;11.02;73.68
36818;DHT22;22761;51.542;16.450;2022-10-31T04:24:35;10.99;74.71
36818;DHT22;22761;51.542;16.450;2022-10-31T04:27:03;11.02;75.03
36818;DHT22;22761;51.542;16.450;2022-10-31T04:29:30;11.02;76.01
36818;DHT22;22761;51.542;16.450;2022-10-31T04:31:58;11.03;76.14
36818;DHT22;22761;51.542;16.450;2022-10-31T04:34:25;11.09;77.16
36818;DHT22;22761;51.542;16.450;2022-10-31T04:36:53;11.13;75.74
36818;DHT22;22761;51.542;16.450;2022-10-31T04:39:22;11.16;75.11
36818;DHT22;22761;51.542;16.450;2022-10-31T04:41:51;11.16;74.47
36818;DHT22;22761;51.542;16.450;2022-10-31T04:44:19;11.17;73.96
36818;DHT22;22761;51.542;16.450;2022-10-31T04:46:48;11.18;73.67
36818;DHT22;22761;51.542;16.450;2022-10-31T04:49:16;11.18;73.53
36818;DHT22;22761;51.542;16.450;2022-10-31T04:51:44;11.18;73.58
36818;DHT22;22761;51.542;16.450;2022-10-31T04:54:12;11.17;73.42
36818;DHT22;22761;51.542;16.450;2022-10-31T04:56:58;11.16;73.69
36818;DHT22;22761;51.542;16.450;2022-10-31T04:59:25;11.14;73.78
36818;DHT22;22761;51.542;16.450;2022-10-31T05:01:54;11.13;73.52
36818;DHT22;22761;51.542;16.450;2022-10-31T05:04:23;11.11;73.59
36818;DHT22;22761;51.542;16.450;2022-10-31T05:06:50;11.11;73.81
36818;DHT22;22761;51.542;16.450;2022-10-31T05:09:19;11.10;73.79
36818;DHT22;22761;51.542;16.450;2022-10-31T05:11:46;11.10;73.95
36818;DHT22;22761;51.542;16.450;2022-10-31T05:14:18;11.10;73.74
36818;DHT22;22761;51.542;16.450;2022-10-31T05:17:04;11.09;74.18
36818;DHT22;22761;51.542;16.450;2022-10-31T05:19:37;11.09;73.83
36818;DHT22;22761;51.542;16.450;2022-10-31T05:22:12;11.07;73.73
36818;DHT22;22761;51.542;16.450;2022-10-31T05:24:40;11.10;73.73
36818;DHT22;22761;51.542;16.450;2022-10-31T05:27:09;11.06;73.52
36818;DHT22;22761;51.542;16.450;2022-10-31T05:29:37;11.06;73.49
36818;DHT22;22761;51.542;16.450;2022-10-31T05:32:04;11.04;74.26
36818;DHT22;22761;51.542;16.450;2022-10-31T05:34:42;11.02;74.39
36818;DHT22;22761;51.542;16.450;2022-10-31T05:37:14;11.07;75.36
36818;DHT22;22761;51.542;16.450;2022-10-31T05:39:42;11.10;75.31
36818;DHT22;22761;51.542;16.450;2022-10-31T05:42:11;11.14;75.30
36818;DHT22;22761;51.542;16.450;2022-10-31T05:44:39;11.13;74.97
36818;DHT22;22761;51.542;16.450;2022-10-31T05:47:17;11.20;75.06
36818;DHT22;22761;51.542;16.450;2022-10-31T05:49:55;11.17;74.69
36818;DHT22;22761;51.542;16.450;2022-10-31T05:52:41;11.20;74.81
36818;DHT22;22761;51.542;16.450;2022-10-31T05:55:19;11.21;74.69
36818;DHT22;22761;51.542;16.450;2022-10-31T05:57:49;11.21;74.11
36818;DHT22;22761;51.542;16.450;2022-10-31T06:00:17;11.23;74.06
36818;DHT22;22761;51.542;16.450;2022-10-31T06:02:48;11.27;74.12
36818;DHT22;22761;51.542;16.450;2022-10-31T06:05:24;11.24;73.59
36818;DHT22;22761;51.542;16.450;2022-10-31T06:07:53;11.24;73.76
36818;DHT22;22761;51.542;16.450;2022-10-31T06:10:21;11.24;74.09
36818;DHT22;22761;51.542;16.450;2022-10-31T06:12:50;11.28;74.27
36818;DHT22;22761;51.542;16.450;2022-10-31T06:15:22;11.28;74.45
36818;DHT22;22761;51.542;16.450;2022-10-31T06:18:04;11.28;74.64
36818;DHT22;22761;51.542;16.450;2022-10-31T06:20:37;11.30;75.45
36818;DHT22;22761;51.542;16.450;2022-10-31T06:23:05;11.33;75.50
36818;DHT22;22761;51.542;16.450;2022-10-31T06:25:33;11.34;75.86
36818;DHT22;22761;51.542;16.450;2022-10-31T06:28:00;11.35;75.25
36818;DHT22;22761;51.542;16.450;2022-10-31T06:30:32;11.40;75.08
36818;DHT22;22761;51.542;16.450;2022-10-31T06:33:05;11.41;75.31
36818;DHT22;22761;51.542;16.450;2022-10-31T06:35:34;11.44;75.07
36818;DHT22;22761;51.542;16.450;2022-10-31T06:38:01;11.45;75.37
36818;DHT22;22761;51.542;16.450;2022-10-31T06:40:30;11.51;75.50
36818;DHT22;22761;51.542;16.450;2022-10-31T06:43:05;11.55;75.61
36818;DHT22;22761;51.542;16.450;2022-10-31T06:45:32;11.61;75.82
36818;DHT22;22761;51.542;16.450;2022-10-31T06:48:05;11.62;75.65
36818;DHT22;22761;51.542;16.450;2022-10-31T06:50:34;11.71;76.06
36818;DHT22;22761;51.542;16.450;2022-10-31T06:53:01;11.76;76.20
36818;DHT22;22761;51.542;16.450;2022-10-31T06:55:29;11.82;76.61
36818;DHT22;22761;51.542;16.450;2022-10-31T06:57:58;11.89;76.69
36818;DHT22;22761;51.542;16.450;2022-10-31T07:00:29;11.93;76.80
36818;DHT22;22761;51.542;16.450;2022-10-31T07:03:01;12.03;76.64
36818;DHT22;22761;51.542;16.450;2022-10-31T07:05:29;12.12;76.72
36818;DHT22;22761;51.542;16.450;2022-10-31T07:08:00;12.19;76.91
36818;DHT22;22761;51.542;16.450;2022-10-31T07:10:31;12.25;77.04
36818;DHT22;22761;51.542;16.450;2022-10-31T07:13:04;12.35;77.18
36818;DHT22;22761;51.542;16.450;2022-10-31T07:15:36;12.44;77.30
36818;DHT22;22761;51.542;16.450;2022-10-31T07:18:07;12.51;77.20
36818;DHT22;22761;51.542;16.450;2022-10-31T07:20:35;12.58;77.41
36818;DHT22;22761;51.542;16.450;2022-10-31T07:23:03;12.63;77.49
36818;DHT22;22761;51.542;16.450;2022-10-31T07:25:31;12.68;77.45
36818;DHT22;22761;51.542;16.450;2022-10-31T07:28:07;12.75;77.57
36818;DHT22;22761;51.542;16.450;2022-10-31T07:30:34;12.86;77.60
36818;DHT22;22761;51.542;16.450;2022-10-31T07:33:01;12.96;77.53
36818;DHT22;22761;51.542;16.450;2022-10-31T07:35:36;13.06;77.46
36818;DHT22;22761;51.542;16.450;2022-10-31T07:38:10;13.10;77.35
36818;DHT22;22761;51.542;16.450;2022-10-31T07:40:38;13.24;77.48
36818;DHT22;22761;51.542;16.450;2022-10-31T07:43:07;13.34;77.76
36818;DHT22;22761;51.542;16.450;2022-10-31T07:45:48;13.43;77.66
36818;DHT22;22761;51.542;16.450;2022-10-31T07:48:32;13.55;77.64
36818;DHT22;22761;51.542;16.450;2022-10-31T07:51:18;13.63;77.34
36818;DHT22;22761;51.542;16.450;2022-10-31T07:54:03;13.72;77.18
36818;DHT22;22761;51.542;16.450;2022-10-31T07:56:32;13.82;77.15
36818;DHT22;22761;51.542;16.450;2022-10-31T07:58:59;13.92;77.13
36818;DHT22;22761;51.542;16.450;2022-10-31T08:01:26;14.01;77.24
36818;DHT22;22761;51.542;16.450;2022-10-31T08:03:55;14.11;77.43
36818;DHT22;22761;51.542;16.450;2022-10-31T08:06:25;14.25;77.66
36818;DHT22;22761;51.542;16.450;2022-10-31T08:09:06;14.35;77.47
36818;DHT22;22761;51.542;16.450;2022-10-31T08:11:34;14.49;77.54
36818;DHT22;22761;51.542;16.450;2022-10-31T08:14:01;14.60;77.30
36818;DHT22;22761;51.542;16.450;2022-10-31T08:16:28;14.73;77.24
36818;DHT22;22761;51.542;16.450;2022-10-31T08:18:57;14.84;77.11
36818;DHT22;22761;51.542;16.450;2022-10-31T08:21:25;14.98;77.18
36818;DHT22;22761;51.542;16.450;2022-10-31T08:23:52;15.14;77.51
36818;DHT22;22761;51.542;16.450;2022-10-31T08:26:21;15.27;77.68
36818;DHT22;22761;51.542;16.450;2022-10-31T08:28:50;15.46;77.47
36818;DHT22;22761;51.542;16.450;2022-10-31T08:31:20;15.62;77.14
36818;DHT22;22761;51.542;16.450;2022-10-31T08:33:47;15.81;76.50
36818;DHT22;22761;51.542;16.450;2022-10-31T08:36:19;15.97;76.36
36818;DHT22;22761;51.542;16.450;2022-10-31T08:38:51;16.11;76.13
36818;DHT22;22761;51.542;16.450;2022-10-31T08:41:19;16.29;75.95
36818;DHT22;22761;51.542;16.450;2022-10-31T08:43:47;16.53;75.96
36818;DHT22;22761;51.542;16.450;2022-10-31T08:46:16;16.74;74.91
36818;DHT22;22761;51.542;16.450;2022-10-31T08:48:44;16.92;74.97
36818;DHT22;22761;51.542;16.450;2022-10-31T08:51:12;17.12;73.97
36818;DHT22;22761;51.542;16.450;2022-10-31T08:53:40;17.28;73.03
36818;DHT22;22761;51.542;16.450;2022-10-31T08:56:26;17.49;72.04
36818;DHT22;22761;51.542;16.450;2022-10-31T08:58:54;17.69;70.82
36818;DHT22;22761;51.542;16.450;2022-10-31T09:01:23;17.90;69.88
36818;DHT22;22761;51.542;16.450;2022-10-31T09:03:50;18.13;68.24
36818;DHT22;22761;51.542;16.450;2022-10-31T09:06:18;18.37;67.01
36818;DHT22;22761;51.542;16.450;2022-10-31T09:08:47;18.60;65.80
36818;DHT22;22761;51.542;16.450;2022-10-31T09:11:14;18.81;65.63
36818;DHT22;22761;51.542;16.450;2022-10-31T09:13:49;19.10;63.90
36818;DHT22;22761;51.542;16.450;2022-10-31T09:16:35;19.32;63.65
36818;DHT22;22761;51.542;16.450;2022-10-31T09:19:02;19.54;62.39
36818;DHT22;22761;51.542;16.450;2022-10-31T09:21:29;19.74;62.11
36818;DHT22;22761;51.542;16.450;2022-10-31T09:23:58;19.92;61.47
36818;DHT22;22761;51.542;16.450;2022-10-31T09:26:25;20.11;61.00
36818;DHT22;22761;51.542;16.450;2022-10-31T09:28:57;20.30;60.54
36818;DHT22;22761;51.542;16.450;2022-10-31T09:31:25;20.50;59.96
36818;DHT22;22761;51.542;16.450;2022-10-31T09:33:57;20.67;59.48
36818;DHT22;22761;51.542;16.450;2022-10-31T09:36:38;20.85;59.37
36818;DHT22;22761;51.542;16.450;2022-10-31T09:39:14;20.91;57.92
36818;DHT22;22761;51.542;16.450;2022-10-31T09:42:01;20.71;58.10
36818;DHT22;22761;51.542;16.450;2022-10-31T09:44:38;20.53;59.51
36818;DHT22;22761;51.542;16.450;2022-10-31T09:47:25;20.47;60.30
36818;DHT22;22761;51.542;16.450;2022-10-31T09:52:31;20.44;59.66
36818;DHT22;22761;51.542;16.450;2022-10-31T09:55:05;20.48;59.23
36818;DHT22;22761;51.542;16.450;2022-10-31T09:57:35;20.53;60.42
36818;DHT22;22761;51.542;16.450;2022-10-31T10:00:06;20.67;60.36
36818;DHT22;22761;51.542;16.450;2022-10-31T10:05:14;21.02;59.93
36818;DHT22;22761;51.542;16.450;2022-10-31T10:08:08;21.20;59.95
36818;DHT22;22761;51.542;16.450;2022-10-31T10:10:45;21.44;58.55
36818;DHT22;22761;51.542;16.450;2022-10-31T10:16:09;21.78;57.52
36818;DHT22;22761;51.542;16.450;2022-10-31T10:22:06;22.02;57.01
36818;DHT22;22761;51.542;16.450;2022-10-31T10:24:56;22.06;57.31
36818;DHT22;22761;51.542;16.450;2022-10-31T10:30:20;22.26;56.78
36818;DHT22;22761;51.542;16.450;2022-10-31T10:32:53;22.44;57.22
36818;DHT22;22761;51.542;16.450;2022-10-31T10:35:59;22.64;57.08
36818;DHT22;22761;51.542;16.450;2022-10-31T10:41:22;23.07;56.21
36818;DHT22;22761;51.542;16.450;2022-10-31T10:43:51;23.26;54.51
36818;DHT22;22761;51.542;16.450;2022-10-31T10:46:50;23.43;54.63
36818;DHT22;22761;51.542;16.450;2022-10-31T10:49:50;23.65;54.16
36818;DHT22;22761;51.542;16.450;2022-10-31T10:52:33;23.85;53.64
36818;DHT22;22761;51.542;16.450;2022-10-31T11:00:30;24.34;52.24
36818;DHT22;22761;51.542;16.450;2022-10-31T11:02:58;24.39;52.21
36818;DHT22;22761;51.542;16.450;2022-10-31T11:08:05;24.77;51.42
36818;DHT22;22761;51.542;16.450;2022-10-31T11:10:33;24.95;50.97
36818;DHT22;22761;51.542;16.450;2022-10-31T11:13:21;25.15;50.92
36818;DHT22;22761;51.542;16.450;2022-10-31T11:18:39;25.61;49.42
36818;DHT22;22761;51.542;16.450;2022-10-31T11:23:49;25.91;48.96
36818;DHT22;22761;51.542;16.450;2022-10-31T11:26:20;26.02;48.81
36818;DHT22;22761;51.542;16.450;2022-10-31T11:28:58;26.07;48.43
36818;DHT22;22761;51.542;16.450;2022-10-31T11:31:27;26.19;48.42
36818;DHT22;22761;51.542;16.450;2022-10-31T11:34:02;26.33;48.34
36818;DHT22;22761;51.542;16.450;2022-10-31T11:36:37;26.44;47.12
36818;DHT22;22761;51.542;16.450;2022-10-31T11:39:12;26.46;47.30
36818;DHT22;22761;51.542;16.450;2022-10-31T11:41:38;26.43;47.04
36818;DHT22;22761;51.542;16.450;2022-10-31T11:44:25;26.34;46.81
36818;DHT22;22761;51.542;16.450;2022-10-31T11:46:57;26.22;46.96
36818;DHT22;22761;51.542;16.450;2022-10-31T11:49:43;26.20;46.68
36818;DHT22;22761;51.542;16.450;2022-10-31T11:52:25;26.17;47.74
36818;DHT22;22761;51.542;16.450;2022-10-31T11:54:58;26.13;47.76
36818;DHT22;22761;51.542;16.450;2022-10-31T11:57:47;26.16;47.59
36818;DHT22;22761;51.542;16.450;2022-10-31T12:00:38;26.26;47.06
36818;DHT22;22761;51.542;16.450;2022-10-31T12:08:29;26.40;47.00
36818;DHT22;22761;51.542;16.450;2022-10-31T12:23:27;26.27;47.03
36818;DHT22;22761;51.542;16.450;2022-10-31T12:28:24;25.92;48.46
36818;DHT22;22761;51.542;16.450;2022-10-31T12:31:03;25.92;47.88
36818;DHT22;22761;51.542;16.450;2022-10-31T12:34:02;25.84;48.60
36818;DHT22;22761;51.542;16.450;2022-10-31T12:46:04;25.79;48.79
36818;DHT22;22761;51.542;16.450;2022-10-31T12:48:59;25.82;48.19
36818;DHT22;22761;51.542;16.450;2022-10-31T12:51:58;25.91;48.89
36818;DHT22;22761;51.542;16.450;2022-10-31T12:57:27;25.99;48.44
36818;DHT22;22761;51.542;16.450;2022-10-31T13:05:48;26.15;47.84
36818;DHT22;22761;51.542;16.450;2022-10-31T13:08:29;26.15;48.29
36818;DHT22;22761;51.542;16.450;2022-10-31T13:11:14;26.19;48.54
36818;DHT22;22761;51.542;16.450;2022-10-31T13:13:54;26.20;48.71
36818;DHT22;22761;51.542;16.450;2022-10-31T13:16:28;26.22;48.54
36818;DHT22;22761;51.542;16.450;2022-10-31T13:19:31;26.23;48.28
36818;DHT22;22761;51.542;16.450;2022-10-31T13:22:22;26.26;48.54
36818;DHT22;22761;51.542;16.450;2022-10-31T13:30:48;25.95;48.75
36818;DHT22;22761;51.542;16.450;2022-10-31T13:33:37;25.77;48.58
36818;DHT22;22761;51.542;16.450;2022-10-31T13:44:27;25.29;50.48
36818;DHT22;22761;51.542;16.450;2022-10-31T13:46:57;25.25;51.02
36818;DHT22;22761;51.542;16.450;2022-10-31T13:52:14;25.13;51.88
36818;DHT22;22761;51.542;16.450;2022-10-31T13:54:47;25.08;51.70
36818;DHT22;22761;51.542;16.450;2022-10-31T13:57:33;24.95;52.05
36818;DHT22;22761;51.542;16.450;2022-10-31T14:00:05;24.78;51.99
36818;DHT22;22761;51.542;16.450;2022-10-31T14:02:35;24.72;52.03
36818;DHT22;22761;51.542;16.450;2022-10-31T14:05:43;24.70;52.58
36818;DHT22;22761;51.542;16.450;2022-10-31T14:07:46;24.65;52.68
36818;DHT22;22761;51.542;16.450;2022-10-31T14:10:38;24.57;53.15
36818;DHT22;22761;51.542;16.450;2022-10-31T14:13:14;24.48;53.58
36818;DHT22;22761;51.542;16.450;2022-10-31T14:15:42;24.37;53.79
36818;DHT22;22761;51.542;16.450;2022-10-31T14:18:39;24.23;54.02
36818;DHT22;22761;51.542;16.450;2022-10-31T14:21:30;24.02;54.12
36818;DHT22;22761;51.542;16.450;2022-10-31T14:23:59;23.85;54.79
36818;DHT22;22761;51.542;16.450;2022-10-31T14:26:32;23.65;53.98
36818;DHT22;22761;51.542;16.450;2022-10-31T14:29:25;23.51;55.53
36818;DHT22;22761;51.542;16.450;2022-10-31T14:31:42;23.32;56.20
36818;DHT22;22761;51.542;16.450;2022-10-31T14:34:34;23.16;56.67
36818;DHT22;22761;51.542;16.450;2022-10-31T14:37:30;23.01;56.95
36818;DHT22;22761;51.542;16.450;2022-10-31T14:45:57;22.33;58.40
36818;DHT22;22761;51.542;16.450;2022-10-31T14:51:23;21.81;59.53
36818;DHT22;22761;51.542;16.450;2022-10-31T14:53:55;21.50;60.07
36818;DHT22;22761;51.542;16.450;2022-10-31T14:56:35;21.22;60.77
36818;DHT22;22761;51.542;16.450;2022-10-31T14:59:12;20.91;61.31
36818;DHT22;22761;51.542;16.450;2022-10-31T15:01:58;20.58;61.98
36818;DHT22;22761;51.542;16.450;2022-10-31T15:04:35;20.26;62.37
36818;DHT22;22761;51.542;16.450;2022-10-31T15:07:08;20.17;62.95
36818;DHT22;22761;51.542;16.450;2022-10-31T15:09:39;20.26;62.91
36818;DHT22;22761;51.542;16.450;2022-10-31T15:12:31;20.36;62.40
36818;DHT22;22761;51.542;16.450;2022-10-31T15:15:13;20.34;62.36
36818;DHT22;22761;51.542;16.450;2022-10-31T15:17:58;20.32;62.04
36818;DHT22;22761;51.542;16.450;2022-10-31T15:20:29;20.25;62.11
36818;DHT22;22761;51.542;16.450;2022-10-31T15:22:58;20.16;62.25
36818;DHT22;22761;51.542;16.450;2022-10-31T15:25:32;20.06;61.70
36818;DHT22;22761;51.542;16.450;2022-10-31T15:27:58;20.01;61.39
36818;DHT22;22761;51.542;16.450;2022-10-31T15:30:28;19.89;61.81
36818;DHT22;22761;51.542;16.450;2022-10-31T15:32:56;19.81;61.57
36818;DHT22;22761;51.542;16.450;2022-10-31T15:35:27;19.72;61.92
36818;DHT22;22761;51.542;16.450;2022-10-31T15:37:57;19.61;61.68
36818;DHT22;22761;51.542;16.450;2022-10-31T15:40:26;19.52;61.32
36818;DHT22;22761;51.542;16.450;2022-10-31T15:43:04;19.40;61.23
36818;DHT22;22761;51.542;16.450;2022-10-31T15:45:31;19.27;61.26
36818;DHT22;22761;51.542;16.450;2022-10-31T15:48:02;19.15;61.63
36818;DHT22;22761;51.542;16.450;2022-10-31T15:50:40;18.99;61.78
36818;DHT22;22761;51.542;16.450;2022-10-31T15:53:17;18.87;61.96
36818;DHT22;22761;51.542;16.450;2022-10-31T15:56:00;18.74;62.25
36818;DHT22;22761;51.542;16.450;2022-10-31T15:58:28;18.64;62.18
36818;DHT22;22761;51.542;16.450;2022-10-31T16:01:18;18.53;62.11
36818;DHT22;22761;51.542;16.450;2022-10-31T16:03:34;18.39;62.29
36818;DHT22;22761;51.542;16.450;2022-10-31T16:06:04;18.29;62.84
36818;DHT22;22761;51.542;16.450;2022-10-31T16:08:35;18.16;63.02
36818;DHT22;22761;51.542;16.450;2022-10-31T16:11:22;18.05;62.75
36818;DHT22;22761;51.542;16.450;2022-10-31T16:16:29;17.77;63.76
36818;DHT22;22761;51.542;16.450;2022-10-31T16:19:00;17.66;64.41
36818;DHT22;22761;51.542;16.450;2022-10-31T16:21:32;17.53;64.17
36818;DHT22;22761;51.542;16.450;2022-10-31T16:24:49;17.40;64.93
36818;DHT22;22761;51.542;16.450;2022-10-31T16:26:32;17.30;65.21
36818;DHT22;22761;51.542;16.450;2022-10-31T16:29:01;17.21;64.76
36818;DHT22;22761;51.542;16.450;2022-10-31T16:31:39;17.14;64.44
36818;DHT22;22761;51.542;16.450;2022-10-31T16:34:20;17.02;64.88
36818;DHT22;22761;51.542;16.450;2022-10-31T16:36:48;16.94;65.55
36818;DHT22;22761;51.542;16.450;2022-10-31T16:39:15;16.84;65.46
36818;DHT22;22761;51.542;16.450;2022-10-31T16:41:48;16.78;65.13
36818;DHT22;22761;51.542;16.450;2022-10-31T16:44:22;16.67;66.01
36818;DHT22;22761;51.542;16.450;2022-10-31T16:47:15;16.63;65.97
36818;DHT22;22761;51.542;16.450;2022-10-31T16:49:46;16.55;65.74
36818;DHT22;22761;51.542;16.450;2022-10-31T16:52:15;16.45;65.86
36818;DHT22;22761;51.542;16.450;2022-10-31T16:54:43;16.39;66.21
36818;DHT22;22761;51.542;16.450;2022-10-31T16:57:18;16.32;66.32
36818;DHT22;22761;51.542;16.450;2022-10-31T16:59:51;16.24;66.15
36818;DHT22;22761;51.542;16.450;2022-10-31T17:02:21;16.15;66.47
36818;DHT22;22761;51.542;16.450;2022-10-31T17:04:48;16.10;66.35
36818;DHT22;22761;51.542;16.450;2022-10-31T17:07:16;16.04;66.54
36818;DHT22;22761;51.542;16.450;2022-10-31T17:09:43;16.00;66.98
36818;DHT22;22761;51.542;16.450;2022-10-31T17:12:18;15.91;66.98
36818;DHT22;22761;51.542;16.450;2022-10-31T17:14:48;15.88;66.70
36818;DHT22;22761;51.542;16.450;2022-10-31T17:17:17;15.78;66.71
36818;DHT22;22761;51.542;16.450;2022-10-31T17:19:44;15.73;66.35
36818;DHT22;22761;51.542;16.450;2022-10-31T17:22:13;15.65;66.91
36818;DHT22;22761;51.542;16.450;2022-10-31T17:24:41;15.59;67.02
36818;DHT22;22761;51.542;16.450;2022-10-31T17:27:08;15.55;67.62
36818;DHT22;22761;51.542;16.450;2022-10-31T17:29:35;15.53;67.50
36818;DHT22;22761;51.542;16.450;2022-10-31T17:32:03;15.49;67.27
36818;DHT22;22761;51.542;16.450;2022-10-31T17:34:31;15.43;67.31
36818;DHT22;22761;51.542;16.450;2022-10-31T17:36:59;15.39;67.60
36818;DHT22;22761;51.542;16.450;2022-10-31T17:39:26;15.35;67.54
36818;DHT22;22761;51.542;16.450;2022-10-31T17:41:55;15.29;67.60
36818;DHT22;22761;51.542;16.450;2022-10-31T17:44:22;15.28;67.35
36818;DHT22;22761;51.542;16.450;2022-10-31T17:46:50;15.22;67.56
36818;DHT22;22761;51.542;16.450;2022-10-31T17:49:17;15.19;67.77
36818;DHT22;22761;51.542;16.450;2022-10-31T17:51:44;15.12;68.26
36818;DHT22;22761;51.542;16.450;2022-10-31T17:54:11;15.08;68.15
36818;DHT22;22761;51.542;16.450;2022-10-31T17:56:38;15.05;67.79
36818;DHT22;22761;51.542;16.450;2022-10-31T17:59:06;15.01;67.46
36818;DHT22;22761;51.542;16.450;2022-10-31T18:01:34;14.95;67.82